Time;durP1;ratioP1;P1;durP2;ratioP2;P2;SDS_P1;SDS_P2;PMS_P1;PMS_P2;Temp;Humidity;BMP_temperature;BMP_pressure;BME280_temperature;BME280_humidity;BME280_pressure;Samples;Min_cycle;Max_cycle;Signal;HPM_P1;HPM_P2
2022/05/30 18:43:20;;;;;;;18.60;7.70;;;;;;;16.98;47.11;98695.14;106046;1267;109263;-71
2022/05/30 18:45:56;;;;;;;17.80;8.30;;;;;;;16.95;47.06;98703.48;105958;1276;97980;-70
2022/05/30 18:48:39;;;;;;;21.00;9.00;;;;;;;16.92;47.10;98708.36;105885;1276;97899;-70
2022/05/30 18:51:07;;;;;;;23.10;9.80;;;;;;;16.89;47.23;98712.98;105970;1276;111424;-70
2022/05/30 18:53:35;;;;;;;20.90;9.10;;;;;;;16.87;47.15;98717.41;105852;1276;96270;-70
2022/05/30 18:56:20;;;;;;;22.50;9.50;;;;;;;16.84;47.21;98726.27;105856;1279;107672;-68
2022/05/30 18:59:08;;;;;;;23.80;10.60;;;;;;;16.81;47.37;98737.48;105881;1276;97934;-69
2022/05/30 19:01:38;;;;;;;22.00;10.30;;;;;;;16.78;47.28;98745.13;105890;1276;97883;-70
2022/05/30 19:04:07;;;;;;;24.30;11.20;;;;;;;16.77;47.29;98754.41;105906;1277;111487;-70
2022/05/30 19:06:37;;;;;;;23.90;11.10;;;;;;;16.75;47.28;98763.02;105855;1277;97981;-71
2022/05/30 19:09:06;;;;;;;25.50;12.10;;;;;;;16.73;47.35;98766.31;105948;1277;107712;-67
2022/05/30 19:11:43;;;;;;;20.40;9.40;;;;;;;16.69;47.35;98766.63;106030;1276;97880;-69
2022/05/30 19:14:24;;;;;;;18.90;8.00;;;;;;;16.64;47.55;98765.69;105978;1278;97254;-71
2022/05/30 19:20:13;;;;;;;17.40;7.40;;;;;;;16.57;47.81;98783.27;106013;1276;98069;-70
2022/05/30 19:22:44;;;;;;;16.90;6.80;;;;;;;16.52;47.85;98795.65;105956;1276;107770;-72
2022/05/30 19:25:26;;;;;;;15.60;6.60;;;;;;;16.43;47.89;98801.12;105846;1277;95359;-70
2022/05/30 19:27:57;;;;;;;17.60;8.30;;;;;;;16.38;48.04;98804.47;105957;1276;98575;-71
2022/05/30 19:30:28;;;;;;;18.60;9.10;;;;;;;16.35;48.22;98804.92;105933;1277;111593;-70
2022/05/30 19:32:57;;;;;;;19.50;8.90;;;;;;;16.33;48.20;98806.91;105939;1279;97030;-71
2022/05/30 19:35:32;;;;;;;17.80;8.50;;;;;;;16.31;48.35;98807.36;105871;1277;106723;-70
2022/05/30 19:38:07;;;;;;;17.30;8.40;;;;;;;16.28;48.62;98814.09;105877;1277;97390;-71
2022/05/30 19:40:44;;;;;;;18.70;10.20;;;;;;;16.24;48.76;98820.94;106035;1276;97873;-71
2022/05/30 19:43:13;;;;;;;18.50;8.80;;;;;;;16.19;48.64;98820.14;105978;1276;111228;-72
2022/05/30 19:45:42;;;;;;;18.00;9.00;;;;;;;16.15;48.72;98822.41;106026;1276;98037;-72
2022/05/30 19:48:12;;;;;;;16.60;7.90;;;;;;;16.11;48.95;98824.76;105998;1276;107871;-71
2022/05/30 19:50:41;;;;;;;25.80;15.30;;;;;;;16.07;48.93;98830.50;105922;1276;97947;-72
2022/05/30 19:53:10;;;;;;;22.10;12.00;;;;;;;16.04;49.14;98828.85;105924;1276;97870;-69
2022/05/30 19:55:40;;;;;;;18.60;9.30;;;;;;;16.00;49.07;98832.27;105918;1276;112842;-71
2022/05/30 19:58:12;;;;;;;16.70;8.20;;;;;;;15.95;49.32;98831.52;105970;1276;95847;-70
2022/05/30 20:00:41;;;;;;;17.10;8.80;;;;;;;15.91;49.46;98835.30;105933;1276;107742;-68
2022/05/30 20:03:09;;;;;;;16.80;8.70;;;;;;;15.87;49.52;98838.88;105921;1276;97901;-70
2022/05/30 20:05:38;;;;;;;17.50;9.50;;;;;;;15.83;49.60;98842.66;105908;1276;97795;-72
2022/05/30 20:08:06;;;;;;;18.90;10.60;;;;;;;15.78;49.82;98848.44;106014;1277;111425;-69
2022/05/30 20:10:34;;;;;;;18.90;10.50;;;;;;;15.73;49.87;98848.08;105967;1279;96600;-71
2022/05/30 20:13:04;;;;;;;21.30;11.60;;;;;;;15.68;49.85;98848.44;105942;1277;108595;-71
2022/05/30 20:15:36;;;;;;;20.80;11.60;;;;;;;15.62;50.11;98846.66;105890;1277;98047;-71
2022/05/30 20:18:06;;;;;;;21.60;12.00;;;;;;;15.59;50.17;98851.23;105904;1276;97957;-70
2022/05/30 20:20:34;;;;;;;19.90;11.60;;;;;;;15.55;50.39;98857.29;105903;1277;111207;-69
2022/05/30 20:23:02;;;;;;;23.00;11.70;;;;;;;15.51;50.41;98857.70;105917;1277;97905;-70
2022/05/30 20:25:31;;;;;;;23.00;12.30;;;;;;;15.46;50.50;98859.58;105920;1276;107858;-67
2022/05/30 20:27:59;;;;;;;23.60;13.70;;;;;;;15.43;50.57;98860.10;105894;1276;95389;-70
2022/05/30 20:30:27;;;;;;;25.60;14.70;;;;;;;15.40;50.74;98860.05;105891;1277;97984;-67
2022/05/30 20:32:55;;;;;;;26.30;14.50;;;;;;;15.36;50.93;98863.82;106030;1276;110946;-70
2022/05/30 20:35:23;;;;;;;21.60;12.40;;;;;;;15.32;51.06;98864.70;105983;1276;97937;-72
2022/05/30 20:37:51;;;;;;;20.80;11.30;;;;;;;15.28;51.24;98867.34;105966;1276;107808;-71
2022/05/30 20:43:07;;;;;;;19.00;11.10;;;;;;;15.23;51.55;98877.20;105962;1276;97844;-71
2022/05/30 20:45:38;;;;;;;22.60;11.40;;;;;;;15.21;51.54;98880.43;105834;1278;112111;-73
2022/05/30 20:48:23;;;;;;;19.70;11.40;;;;;;;15.18;51.79;98880.86;105973;1277;95268;-71
2022/05/30 20:50:51;;;;;;;20.10;10.80;;;;;;;15.14;51.85;98879.58;105932;1276;107717;-69
2022/05/30 20:53:19;;;;;;;21.30;11.40;;;;;;;15.12;51.85;98886.06;105871;1276;97886;-70
2022/05/30 20:55:46;;;;;;;22.00;11.80;;;;;;;15.09;51.99;98886.84;105969;1276;97857;-67
2022/05/30 20:58:16;;;;;;;19.80;11.00;;;;;;;15.07;52.09;98890.64;105983;1276;111083;-70
2022/05/30 21:00:45;;;;;;;20.60;10.80;;;;;;;15.05;52.18;98888.15;105892;1276;96316;-70
2022/05/30 21:03:14;;;;;;;20.10;11.30;;;;;;;15.01;52.28;98886.86;105856;1276;105612;-72
2022/05/30 21:05:43;;;;;;;19.30;11.40;;;;;;;14.98;52.36;98889.17;105864;1278;97935;-70
2022/05/30 21:08:10;;;;;;;19.70;10.70;;;;;;;14.93;52.50;98889.08;105993;1276;98619;-70
2022/05/30 21:10:38;;;;;;;19.20;11.10;;;;;;;14.90;52.68;98885.61;105979;1276;111415;-71
2022/05/30 21:13:06;;;;;;;21.70;11.80;;;;;;;14.89;52.79;98889.98;105881;1278;97977;-70
2022/05/30 21:15:37;;;;;;;22.90;11.50;;;;;;;14.87;52.96;98890.16;105979;1277;108008;-68
2022/05/30 21:18:42;;;;;;;22.10;13.30;;;;;;;14.85;53.07;98891.39;105996;1276;97885;-70
2022/05/30 21:21:16;;;;;;;23.50;14.30;;;;;;;14.82;53.37;98886.14;106093;1276;97482;-69
2022/05/30 21:23:44;;;;;;;23.20;13.90;;;;;;;14.79;53.33;98887.52;105955;1276;111544;-70
2022/05/30 21:26:13;;;;;;;19.20;10.40;;;;;;;14.75;53.29;98891.97;105989;1276;97963;-70
2022/05/30 21:28:41;;;;;;;18.20;10.20;;;;;;;14.71;53.42;98893.27;105920;1276;107666;-69
2022/05/30 21:31:16;;;;;;;17.50;9.10;;;;;;;14.68;53.54;98888.70;105977;1276;97938;-70
2022/05/30 21:34:11;;;;;;;16.50;9.10;;;;;;;14.59;53.19;98891.10;106002;1277;97940;-70
2022/05/30 21:36:49;;;;;;;16.90;8.90;;;;;;;14.41;53.52;98883.67;105980;1277;111370;-71
2022/05/30 21:39:16;;;;;;;19.20;9.70;;;;;;;14.35;53.71;98883.33;105936;1276;97033;-71
2022/05/30 21:41:45;;;;;;;20.20;10.50;;;;;;;14.31;53.59;98886.18;105949;1276;105855;-71
2022/05/30 21:44:14;;;;;;;21.70;10.30;;;;;;;14.20;53.55;98894.08;106104;1276;97891;-69
2022/05/30 21:46:43;;;;;;;17.70;10.20;;;;;;;14.09;53.74;98896.14;106001;1276;98476;-69
2022/05/30 21:49:12;;;;;;;22.30;10.80;;;;;;;13.97;53.65;98890.44;106037;1277;111345;-69
2022/05/30 21:51:41;;;;;;;18.60;9.90;;;;;;;13.83;53.86;98885.68;105946;1276;98074;-69
2022/05/30 21:54:09;;;;;;;19.10;10.80;;;;;;;13.75;54.38;98882.56;106060;1276;108430;-70
2022/05/30 21:56:43;;;;;;;18.70;11.10;;;;;;;13.75;54.31;98881.33;106118;1276;95309;-70
2022/05/30 21:59:11;;;;;;;18.60;10.20;;;;;;;13.71;54.52;98872.05;106007;1276;97907;-70
2022/05/30 22:01:41;;;;;;;18.10;10.10;;;;;;;13.69;54.73;98859.40;106012;1276;111130;-70
2022/05/30 22:04:10;;;;;;;19.40;10.50;;;;;;;13.69;54.87;98851.56;106120;1276;95198;-69
2022/05/30 22:06:38;;;;;;;19.30;10.90;;;;;;;13.72;55.10;98856.16;105994;1277;108460;-69
2022/05/30 22:09:07;;;;;;;17.00;9.30;;;;;;;13.73;55.01;98864.30;105966;1277;95315;-69
2022/05/30 22:11:35;;;;;;;18.70;9.70;;;;;;;13.71;55.12;98874.20;106013;1276;97870;-70
2022/05/30 22:14:03;;;;;;;17.10;9.50;;;;;;;13.71;55.32;98879.77;106008;1276;111296;-68
2022/05/30 22:16:34;;;;;;;19.90;11.10;;;;;;;13.72;55.39;98880.95;105990;1276;97981;-70
2022/05/30 22:19:06;;;;;;;22.40;12.10;;;;;;;13.72;55.52;98882.84;106005;1276;107781;-69
2022/05/30 22:21:35;;;;;;;21.30;11.50;;;;;;;13.72;55.66;98886.58;105975;1276;97854;-70
2022/05/30 22:24:04;;;;;;;20.80;11.60;;;;;;;13.73;55.77;98885.67;106066;1276;97979;-70
2022/05/30 22:26:33;;;;;;;22.00;11.20;;;;;;;13.76;55.86;98893.79;105997;1276;111436;-69
2022/05/30 22:29:02;;;;;;;20.20;10.30;;;;;;;13.77;55.89;98890.77;105895;1276;97868;-70
2022/05/30 22:31:33;;;;;;;20.90;12.10;;;;;;;13.79;56.12;98894.04;105984;1276;107698;-69
2022/05/30 22:34:02;;;;;;;19.20;11.00;;;;;;;13.79;56.06;98901.48;106011;1276;98522;-71
2022/05/30 22:36:30;;;;;;;22.00;11.80;;;;;;;13.73;55.65;98906.30;105931;1276;97893;-72
2022/05/30 22:38:58;;;;;;;19.90;11.70;;;;;;;13.62;56.05;98907.65;105868;1276;111372;-70
2022/05/30 22:41:26;;;;;;;18.90;10.80;;;;;;;13.59;56.29;98908.95;105924;1276;97931;-71
2022/05/30 22:43:54;;;;;;;19.60;11.30;;;;;;;13.60;56.35;98911.36;105896;1276;106981;-70
2022/05/30 22:46:22;;;;;;;22.40;12.90;;;;;;;13.62;56.55;98911.33;105893;1276;96625;-70
2022/05/30 22:48:51;;;;;;;21.60;11.20;;;;;;;13.65;56.61;98912.35;105870;1276;97887;-70
2022/05/30 22:51:19;;;;;;;20.60;12.20;;;;;;;13.66;56.76;98912.38;105870;1276;110551;-71
2022/05/30 22:53:49;;;;;;;19.60;11.90;;;;;;;13.68;56.81;98914.69;105874;1277;95302;-73
2022/05/30 22:56:18;;;;;;;20.30;11.80;;;;;;;13.70;56.98;98918.34;105856;1276;106401;-71
2022/05/30 22:58:47;;;;;;;20.50;12.00;;;;;;;13.71;57.15;98920.54;105881;1278;97897;-70
2022/05/30 23:01:16;;;;;;;20.80;12.20;;;;;;;13.72;57.15;98921.21;105840;1276;97868;-70
2022/05/30 23:03:45;;;;;;;21.20;12.40;;;;;;;13.72;57.21;98920.13;105856;1277;111471;-70
2022/05/30 23:06:13;;;;;;;21.10;12.10;;;;;;;13.73;57.29;98922.69;105982;1276;97922;-71
2022/05/30 23:08:41;;;;;;;19.70;11.10;;;;;;;13.73;57.34;98918.06;105875;1276;107842;-70
2022/05/30 23:11:20;;;;;;;20.10;11.10;;;;;;;13.74;57.34;98914.45;105914;1276;97011;-71
2022/05/30 23:13:54;;;;;;;21.60;11.90;;;;;;;13.74;57.56;98916.17;105939;1276;96989;-70
2022/05/30 23:16:27;;;;;;;20.40;12.70;;;;;;;13.74;57.65;98918.37;105903;1277;111376;-69
2022/05/30 23:18:56;;;;;;;20.50;12.00;;;;;;;13.73;57.68;98925.55;105908;1276;98002;-70
2022/05/30 23:21:28;;;;;;;22.10;12.10;;;;;;;13.73;57.76;98935.70;105920;1277;107733;-70
2022/05/30 23:23:57;;;;;;;21.00;12.60;;;;;;;13.71;57.80;98937.30;105891;1276;97885;-70
2022/05/30 23:26:28;;;;;;;20.50;12.10;;;;;;;13.69;57.92;98939.05;106010;1277;97966;-69
2022/05/30 23:28:57;;;;;;;21.00;12.20;;;;;;;13.65;57.73;98940.34;105901;1276;111812;-69
2022/05/30 23:31:25;;;;;;;21.50;13.50;;;;;;;13.55;57.66;98941.38;105956;1277;97978;-68
2022/05/30 23:33:53;;;;;;;20.90;13.10;;;;;;;13.46;57.81;98934.64;105925;1276;107848;-69
2022/05/30 23:36:21;;;;;;;21.00;12.90;;;;;;;13.41;57.93;98935.93;105861;1276;98008;-69
2022/05/30 23:38:50;;;;;;;19.90;12.20;;;;;;;13.41;58.09;98937.22;105944;1276;97877;-69
2022/05/30 23:46:55;;;;;;;22.70;12.90;;;;;;;13.42;58.43;98940.34;105915;1276;106009;-69
2022/05/30 23:49:24;;;;;;;21.50;12.90;;;;;;;13.43;58.47;98939.21;106000;1277;97941;-71
2022/05/30 23:51:52;;;;;;;20.80;12.60;;;;;;;13.43;58.46;98935.85;105979;1277;97064;-70
2022/05/30 23:54:21;;;;;;;21.50;12.90;;;;;;;13.43;58.59;98932.64;105924;1276;111571;-70
2022/05/30 23:56:51;;;;;;;19.60;11.20;;;;;;;13.38;58.37;98928.55;105944;1276;95297;-70
2022/05/30 23:59:19;;;;;;;19.20;11.60;;;;;;;13.32;58.54;98926.20;105978;1276;108942;-71
